createdAt,value
2018-02-05T00:48:57.389Z,1.70
2018-02-05T00:51:25.649Z,1.50
2018-02-05T00:53:53.134Z,1.60
2018-02-05T00:56:20.661Z,1.40
2018-02-05T00:58:48.145Z,1.30
2018-02-05T01:01:16.403Z,1.20
2018-02-05T01:03:43.913Z,1.10
2018-02-05T01:06:11.397Z,1.10
2018-02-05T01:08:38.881Z,1.10
2018-02-05T01:11:07.155Z,1.10
2018-02-05T01:13:35.410Z,1.10
2018-02-05T01:16:02.894Z,1.10
2018-02-05T01:18:31.178Z,1.10
2018-02-05T01:20:59.441Z,1.10
2018-02-05T01:23:26.925Z,1.10
2018-02-05T01:25:55.205Z,1.10
2018-02-05T01:28:22.709Z,1.00
2018-02-05T01:30:50.193Z,1.00
2018-02-05T01:33:18.469Z,1.10
2018-02-05T01:35:45.952Z,1.10
2018-02-05T01:38:14.217Z,1.00
2018-02-05T01:40:42.489Z,1.00
2018-02-05T01:43:10.738Z,0.90
2018-02-05T01:45:38.222Z,0.90
2018-02-05T01:48:06.510Z,0.80
2018-02-05T01:50:34.765Z,0.90
2018-02-05T01:53:03.770Z,0.80
2018-02-05T01:55:32.051Z,0.90
2018-02-05T01:58:00.298Z,0.80
2018-02-05T02:00:27.789Z,0.80
2018-02-05T02:02:56.065Z,0.80
2018-02-05T02:05:24.316Z,0.80
2018-02-05T02:07:53.301Z,0.80
2018-02-05T02:10:20.804Z,0.80
2018-02-05T02:12:48.309Z,0.90
2018-02-05T02:15:15.805Z,0.80
2018-02-05T02:17:44.086Z,0.70
2018-02-05T02:20:12.338Z,0.70
2018-02-05T02:22:41.333Z,0.70
2018-02-05T02:25:10.349Z,0.70
2018-02-05T02:27:38.606Z,0.70
2018-02-05T02:30:07.605Z,0.70
2018-02-05T02:32:35.111Z,0.70
2018-02-05T02:35:02.602Z,0.70
2018-02-05T02:37:30.126Z,0.70
2018-02-05T02:39:57.630Z,0.70
2018-02-05T02:42:25.137Z,0.60
2018-02-05T02:44:52.634Z,0.60
2018-02-05T02:47:20.146Z,0.60
2018-02-05T02:49:47.656Z,0.60
2018-02-05T02:52:15.152Z,0.60
2018-02-05T02:54:43.433Z,0.50
2018-02-05T02:57:11.690Z,0.50
2018-02-05T02:59:39.183Z,0.50
2018-02-05T03:02:06.693Z,0.40
2018-02-05T03:04:34.181Z,0.50
2018-02-05T03:07:02.437Z,0.50
2018-02-05T03:09:30.024Z,0.50
2018-02-05T03:11:58.274Z,0.50
2018-02-05T03:14:25.757Z,0.50
2018-02-05T03:16:54.033Z,0.50
2018-02-05T03:19:22.316Z,0.50
2018-02-05T03:21:50.556Z,0.50
2018-02-05T03:24:18.825Z,0.50
2018-02-05T03:26:46.315Z,0.50
2018-02-05T03:29:14.577Z,0.50
2018-02-05T03:31:42.861Z,0.50
2018-02-05T03:34:11.122Z,0.50
2018-02-05T03:36:39.377Z,0.50
2018-02-05T03:39:06.878Z,0.50
2018-02-05T03:41:35.129Z,0.50
2018-02-05T03:44:02.614Z,0.50
2018-02-05T03:46:30.881Z,0.50
2018-02-05T03:48:59.130Z,0.50
2018-02-05T03:51:26.661Z,0.50
2018-02-05T03:53:54.177Z,0.50
2018-02-05T03:56:22.434Z,0.50
2018-02-05T03:58:50.697Z,0.50
2018-02-05T04:01:18.201Z,0.40
2018-02-05T04:03:46.451Z,0.40
2018-02-05T04:06:15.456Z,0.30
2018-02-05T04:08:43.729Z,0.30
2018-02-05T04:11:11.991Z,0.30
2018-02-05T04:13:40.262Z,0.30
2018-02-05T04:16:07.781Z,0.30
2018-02-05T04:18:35.268Z,0.30
2018-02-05T04:21:02.749Z,0.30
2018-02-05T04:23:30.262Z,0.30
2018-02-05T04:25:57.753Z,0.30
2018-02-05T04:28:25.245Z,0.30
2018-02-05T04:30:53.523Z,0.40
2018-02-05T04:33:21.777Z,0.40
2018-02-05T04:35:49.269Z,0.40
2018-02-05T04:38:17.557Z,0.50
2018-02-05T04:40:45.078Z,0.50
2018-02-05T04:43:12.569Z,0.50
2018-02-05T04:45:40.081Z,0.50
2018-02-05T04:48:07.561Z,0.50
2018-02-05T04:50:36.733Z,0.50
2018-02-05T04:53:04.236Z,0.50
2018-02-05T04:55:31.753Z,0.50
2018-02-05T04:57:59.245Z,0.40
2018-02-05T05:00:27.529Z,0.40
2018-02-05T05:02:55.014Z,0.40
2018-02-05T05:05:22.502Z,0.30
2018-02-05T05:07:50.023Z,0.30
2018-02-05T05:10:17.516Z,0.30
2018-02-05T05:12:45.007Z,0.30
2018-02-05T05:15:13.280Z,0.40
2018-02-05T05:17:40.809Z,0.30
2018-02-05T05:20:08.293Z,0.30
2018-02-05T05:22:36.598Z,0.30
2018-02-05T05:25:04.101Z,0.30
2018-02-05T05:27:31.597Z,0.40
2018-02-05T05:29:59.872Z,0.40
2018-02-05T05:32:28.121Z,0.40
2018-02-05T05:34:55.606Z,0.40
2018-02-05T05:37:23.877Z,0.30
2018-02-05T05:39:52.138Z,0.30
2018-02-05T05:42:19.644Z,0.30
2018-02-05T05:44:47.169Z,0.40
2018-02-05T05:47:16.445Z,0.30
2018-02-05T05:49:43.945Z,0.30
2018-02-05T05:52:12.218Z,0.20
2018-02-05T05:54:40.486Z,0.20
2018-02-05T05:57:08.753Z,0.20
2018-02-05T05:59:36.269Z,0.20
2018-02-05T06:02:03.757Z,0.20
2018-02-05T06:04:31.247Z,0.20
2018-02-05T06:06:59.544Z,0.30
2018-02-05T06:09:27.077Z,0.30
2018-02-05T06:11:55.349Z,0.30
2018-02-05T06:14:23.621Z,0.30
2018-02-05T06:16:51.881Z,0.30
2018-02-05T06:19:19.366Z,0.30
2018-02-05T06:21:47.637Z,0.20
2018-02-05T06:24:15.897Z,0.20
2018-02-05T06:26:43.390Z,0.20
2018-02-05T06:29:10.934Z,0.20
2018-02-05T06:31:39.198Z,0.30
2018-02-05T06:34:06.689Z,0.20
2018-02-05T06:36:34.208Z,0.30
2018-02-05T06:39:01.703Z,0.30
2018-02-05T06:41:29.205Z,0.30
2018-02-05T06:43:56.707Z,0.20
2018-02-05T06:46:24.995Z,0.20
2018-02-05T06:48:52.461Z,0.20
2018-02-05T06:51:32.197Z,0.20
2018-02-05T06:54:12.142Z,0.20
2018-02-05T06:56:40.526Z,0.20
2018-02-05T06:59:08.791Z,0.20
2018-02-05T07:01:37.043Z,0.20
2018-02-05T07:04:04.554Z,0.20
2018-02-05T07:06:32.077Z,0.20
2018-02-05T07:09:00.353Z,0.10
2018-02-05T07:11:28.857Z,0.10
2018-02-05T07:13:57.117Z,0.10
2018-02-05T07:16:25.426Z,0.10
2018-02-05T07:18:52.954Z,0.10
2018-02-05T07:21:21.207Z,0.00
2018-02-05T07:23:48.693Z,0.00
2018-02-05T07:26:17.290Z,0.10
2018-02-05T07:28:45.541Z,0.10
2018-02-05T07:31:14.529Z,0.10
2018-02-05T07:33:42.041Z,0.10
2018-02-05T07:36:09.542Z,0.10
2018-02-05T07:38:37.037Z,0.10
2018-02-05T07:41:05.328Z,0.10
2018-02-05T07:43:32.817Z,0.10
2018-02-05T07:46:00.309Z,0.10
2018-02-05T07:48:29.593Z,0.20
2018-02-05T07:50:57.081Z,0.10
2018-02-05T07:53:25.329Z,0.20
2018-02-05T07:55:52.845Z,0.20
2018-02-05T07:58:20.336Z,0.30
2018-02-05T08:00:47.818Z,0.30
2018-02-05T08:03:16.094Z,0.20
2018-02-05T08:05:43.584Z,0.20
2018-02-05T08:08:11.087Z,0.20
2018-02-05T08:10:38.590Z,0.20
2018-02-05T08:13:06.857Z,0.20
2018-02-05T08:15:35.116Z,0.30
2018-02-05T08:18:04.146Z,0.30
2018-02-05T08:20:31.820Z,0.30
2018-02-05T08:22:59.305Z,0.30
2018-02-05T08:25:26.809Z,0.30
2018-02-05T08:27:55.073Z,0.40
2018-02-05T08:30:24.121Z,0.50
2018-02-05T08:32:51.740Z,0.50
2018-02-05T08:35:19.994Z,0.50
2018-02-05T08:37:49.654Z,0.60
2018-02-05T08:40:17.933Z,0.60
2018-02-05T08:42:45.426Z,0.70
2018-02-05T08:45:12.925Z,0.70
2018-02-05T08:47:40.460Z,0.70
2018-02-05T08:50:08.718Z,0.80
2018-02-05T08:52:36.234Z,0.80
2018-02-05T08:55:03.764Z,0.90
2018-02-05T08:57:32.050Z,1.00
2018-02-05T09:00:00.305Z,1.00
2018-02-05T09:02:28.601Z,1.10
2018-02-05T09:04:56.864Z,1.10
2018-02-05T09:07:24.353Z,1.10
2018-02-05T09:09:51.865Z,1.30
2018-02-05T09:12:19.350Z,1.40
2018-02-05T09:14:47.603Z,1.50
2018-02-05T09:17:15.109Z,1.40
2018-02-05T09:19:42.651Z,1.50
2018-02-05T09:22:10.121Z,1.70
2018-02-05T09:24:37.644Z,1.80
2018-02-05T09:27:05.134Z,1.90
2018-02-05T09:29:33.385Z,1.80
2018-02-05T09:32:00.986Z,1.80
2018-02-05T09:34:28.481Z,1.90
2018-02-05T09:36:55.970Z,2.00
2018-02-05T09:39:24.354Z,2.10
2018-02-05T09:41:52.605Z,2.20
2018-02-05T09:44:20.098Z,2.10
2018-02-05T09:46:48.370Z,2.30
2018-02-05T09:49:16.613Z,2.30
2018-02-05T09:51:44.108Z,2.30
2018-02-05T09:54:12.391Z,2.70
2018-02-05T09:56:40.637Z,2.60
2018-02-05T09:59:08.125Z,2.60
2018-02-05T10:01:36.403Z,2.90
2018-02-05T10:04:03.910Z,2.80
2018-02-05T10:06:31.543Z,3.00
2018-02-05T10:08:59.882Z,3.30
2018-02-05T10:11:28.142Z,3.40
2018-02-05T10:13:57.428Z,3.30
2018-02-05T10:16:24.941Z,3.30
2018-02-05T10:18:52.457Z,3.40
2018-02-05T10:21:19.941Z,3.40
2018-02-05T10:23:48.213Z,3.80
2018-02-05T10:26:16.501Z,4.00
2018-02-05T10:28:44.767Z,4.10
2018-02-05T10:31:13.053Z,4.10
2018-02-05T10:33:41.302Z,4.10
2018-02-05T10:36:08.801Z,4.10
2018-02-05T10:38:36.318Z,4.10
2018-02-05T10:41:03.811Z,4.20
2018-02-05T10:43:32.065Z,4.30
2018-02-05T10:45:59.600Z,4.30
2018-02-05T10:48:27.086Z,4.40
2018-02-05T10:50:54.569Z,4.50
2018-02-05T10:53:22.089Z,4.60
2018-02-05T10:55:49.566Z,4.80
2018-02-05T10:58:17.818Z,4.90
2018-02-05T11:00:45.325Z,4.90
2018-02-05T11:03:12.853Z,4.90
2018-02-05T11:05:40.362Z,4.90
2018-02-05T11:08:07.873Z,4.90
2018-02-05T11:10:37.189Z,4.90
2018-02-05T11:13:05.442Z,4.80
2018-02-05T11:15:32.947Z,4.90
2018-02-05T11:18:00.438Z,4.80
2018-02-05T11:20:27.925Z,4.80
2018-02-05T11:22:55.436Z,4.90
2018-02-05T11:25:22.983Z,5.00
2018-02-05T11:27:50.473Z,5.10
2018-02-05T11:30:17.981Z,5.00
2018-02-05T11:32:46.246Z,5.10
2018-02-05T11:35:14.510Z,5.20
2018-02-05T11:37:42.020Z,5.20
2018-02-05T11:40:09.513Z,5.20
2018-02-05T11:42:36.994Z,5.20
2018-02-05T11:45:05.269Z,5.20
2018-02-05T11:47:33.521Z,5.00
2018-02-05T11:50:01.012Z,5.00
2018-02-05T11:52:29.295Z,5.30
2018-02-05T11:54:56.815Z,5.20
2018-02-05T11:57:24.304Z,5.20
2018-02-05T11:59:52.585Z,5.30
2018-02-05T12:02:20.833Z,5.30
2018-02-05T12:04:48.318Z,5.30
2018-02-05T12:07:16.606Z,5.50
2018-02-05T12:09:44.933Z,5.50
2018-02-05T12:12:12.464Z,5.40
2018-02-05T12:14:40.010Z,5.20
2018-02-05T12:17:07.553Z,5.10
2018-02-05T12:19:35.821Z,5.30
2018-02-05T12:22:04.097Z,5.40
2018-02-05T12:24:33.369Z,5.60
2018-02-05T12:27:00.870Z,5.50
2018-02-05T12:29:29.164Z,5.70
2018-02-05T12:31:56.650Z,5.70
2018-02-05T12:34:24.188Z,5.60
2018-02-05T12:36:51.725Z,5.80
2018-02-05T12:39:19.986Z,5.90
2018-02-05T12:41:48.245Z,6.00
2018-02-05T12:44:15.751Z,5.90
2018-02-05T12:46:43.246Z,6.00
2018-02-05T12:49:10.751Z,5.90
2018-02-05T12:51:39.019Z,5.90
2018-02-05T12:54:07.298Z,6.00
2018-02-05T12:56:35.577Z,6.20
2018-02-05T12:59:03.875Z,6.40
2018-02-05T13:01:37.091Z,6.40
2018-02-05T13:04:21.441Z,6.30
2018-02-05T13:06:48.929Z,6.40
2018-02-05T13:09:16.426Z,6.40
2018-02-05T13:11:43.957Z,6.40
2018-02-05T13:14:11.441Z,6.40
2018-02-05T13:16:39.701Z,6.70
2018-02-05T13:19:08.005Z,6.70
2018-02-05T13:21:35.576Z,6.70
2018-02-05T13:24:03.067Z,6.70
2018-02-05T13:26:30.630Z,6.80
2018-02-05T13:28:58.085Z,7.00
2018-02-05T13:31:25.562Z,7.20
2018-02-05T13:33:53.073Z,7.40
2018-02-05T13:36:20.560Z,7.40
2018-02-05T13:38:48.065Z,7.50
2018-02-05T13:41:16.348Z,7.60
2018-02-05T13:43:43.857Z,7.60
2018-02-05T13:46:11.346Z,7.70
2018-02-05T13:48:39.625Z,7.90
2018-02-05T13:51:07.873Z,8.00
2018-02-05T13:53:35.383Z,8.00
2018-02-05T13:56:02.925Z,8.00
2018-02-05T13:58:31.175Z,8.00
2018-02-05T14:00:58.721Z,8.00
2018-02-05T14:03:27.063Z,8.20
2018-02-05T14:05:54.577Z,8.40
2018-02-05T14:08:22.953Z,8.70
2018-02-05T14:10:50.474Z,8.60
2018-02-05T14:13:17.961Z,8.80
2018-02-05T14:15:45.468Z,9.10
2018-02-05T14:18:13.803Z,9.10
2018-02-05T14:20:41.416Z,9.10
2018-02-05T14:23:08.929Z,8.60
2018-02-05T14:25:36.446Z,8.40
2018-02-05T14:28:03.926Z,8.00
2018-02-05T14:30:31.419Z,7.90
2018-02-05T14:32:59.719Z,7.40
2018-02-05T14:35:27.229Z,7.40
2018-02-05T14:37:54.737Z,7.20
2018-02-05T14:40:23.314Z,7.00
2018-02-05T14:42:50.820Z,6.90
2018-02-05T14:45:18.321Z,6.80
2018-02-05T14:47:45.832Z,6.60
2018-02-05T14:50:14.191Z,6.30
2018-02-05T14:52:41.697Z,6.30
2018-02-05T14:55:09.186Z,6.10
2018-02-05T14:57:36.699Z,6.00
2018-02-05T15:00:04.268Z,5.80
2018-02-05T15:05:30.165Z,5.60
2018-02-05T15:07:57.673Z,5.40
2018-02-05T15:10:25.160Z,5.40
2018-02-05T15:12:52.662Z,5.30
2018-02-05T15:15:20.911Z,5.30
2018-02-05T15:17:48.391Z,5.30
2018-02-05T15:20:16.658Z,5.30
2018-02-05T15:22:44.145Z,5.20
2018-02-05T15:25:11.636Z,5.30
2018-02-05T15:27:39.150Z,5.30
2018-02-05T15:30:07.401Z,5.20
2018-02-05T15:32:34.891Z,5.20
2018-02-05T15:35:03.181Z,5.00
2018-02-05T15:37:30.673Z,5.00
2018-02-05T15:39:58.156Z,5.00
2018-02-05T15:42:26.431Z,4.90
2018-02-05T15:44:53.918Z,4.90
2018-02-05T15:47:22.202Z,4.80
2018-02-05T15:49:50.475Z,4.80
2018-02-05T15:52:18.739Z,4.80
2018-02-05T15:54:46.990Z,4.80
2018-02-05T15:57:14.504Z,4.80
2018-02-05T15:59:41.997Z,4.60
2018-02-05T16:02:09.482Z,4.60
2018-02-05T16:04:37.080Z,4.50
2018-02-05T16:07:04.612Z,4.50
2018-02-05T16:09:32.985Z,4.50
2018-02-05T16:12:01.409Z,4.40
2018-02-05T16:14:28.905Z,4.40
2018-02-05T16:16:56.390Z,4.40
2018-02-05T16:19:24.698Z,4.10
2018-02-05T16:21:52.190Z,4.10
2018-02-05T16:24:19.721Z,4.00
2018-02-05T16:26:47.227Z,3.90
2018-02-05T16:29:14.721Z,3.80
2018-02-05T16:31:42.981Z,3.70
2018-02-05T16:34:11.235Z,3.70
2018-02-05T16:36:38.744Z,3.70
2018-02-05T16:39:06.252Z,3.70
2018-02-05T16:41:33.737Z,3.60
2018-02-05T16:47:02.329Z,3.30
2018-02-05T16:49:29.829Z,3.30
2018-02-05T16:51:57.420Z,3.20
2018-02-05T16:54:24.905Z,3.20
2018-02-05T16:56:52.433Z,3.10
2018-02-05T16:59:20.291Z,3.10
2018-02-05T17:01:47.818Z,2.90
2018-02-05T17:04:16.075Z,2.80
2018-02-05T17:06:43.581Z,2.80
2018-02-05T17:09:11.066Z,2.80
2018-02-05T17:11:38.580Z,2.70
2018-02-05T17:14:06.101Z,2.70
2018-02-05T17:16:33.586Z,2.70
2018-02-05T17:22:02.481Z,2.60
2018-02-05T17:24:29.986Z,2.60
2018-02-05T17:26:57.489Z,2.50
2018-02-05T17:29:25.017Z,2.50
2018-02-05T17:31:52.529Z,2.50
2018-02-05T17:34:20.018Z,2.50
2018-02-05T17:36:47.550Z,2.40
2018-02-05T17:39:16.765Z,2.30
2018-02-05T17:41:45.033Z,2.40
2018-02-05T17:44:13.319Z,2.40
2018-02-05T17:46:41.577Z,2.20
2018-02-05T17:49:09.082Z,2.30
2018-02-05T17:51:36.569Z,2.20
2018-02-05T17:54:04.054Z,2.20
2018-02-05T17:56:32.357Z,2.20
2018-02-05T17:58:59.867Z,2.20
2018-02-05T18:01:27.453Z,2.20
2018-02-05T18:03:56.719Z,2.10
2018-02-05T18:06:24.211Z,2.00
2018-02-05T18:08:52.485Z,2.00
2018-02-05T18:11:19.983Z,2.00
2018-02-05T18:13:47.496Z,2.00
2018-02-05T18:16:15.762Z,2.00
2018-02-05T18:18:43.272Z,1.90
2018-02-05T18:21:11.690Z,1.90
2018-02-05T18:23:39.217Z,1.90
2018-02-05T18:26:06.723Z,1.80
2018-02-05T18:28:34.218Z,1.80
2018-02-05T18:31:01.741Z,1.70
2018-02-05T18:33:30.742Z,1.70
2018-02-05T18:35:58.331Z,1.60
2018-02-05T18:38:25.851Z,1.70
2018-02-05T18:40:53.334Z,1.60
2018-02-05T18:43:21.616Z,1.70
2018-02-05T18:45:50.023Z,1.70
2018-02-05T18:48:17.562Z,1.70
2018-02-05T18:50:45.825Z,1.70
2018-02-05T18:53:14.081Z,1.70
2018-02-05T18:55:41.581Z,1.70
2018-02-05T18:58:09.093Z,1.60
2018-02-05T19:00:48.445Z,1.50
2018-02-05T19:03:15.934Z,1.40
2018-02-05T19:05:44.401Z,1.40
2018-02-05T19:08:12.654Z,1.30
2018-02-05T19:10:40.914Z,1.30
2018-02-05T19:13:08.429Z,1.30
2018-02-05T19:15:35.939Z,1.30
2018-02-05T19:18:03.484Z,1.30
2018-02-05T19:20:30.995Z,1.20
2018-02-05T19:22:59.249Z,1.20
2018-02-05T19:25:26.780Z,1.20
2018-02-05T19:27:54.281Z,1.20
2018-02-05T19:30:22.554Z,1.20
2018-02-05T19:32:50.817Z,1.10
2018-02-05T19:35:19.084Z,1.10
2018-02-05T19:37:46.602Z,1.10
2018-02-05T19:40:14.134Z,1.10
2018-02-05T19:42:42.418Z,1.10
2018-02-05T19:45:09.925Z,1.10
2018-02-05T19:47:37.418Z,1.10
2018-02-05T19:50:05.693Z,1.10
2018-02-05T19:52:33.949Z,1.10
2018-02-05T19:55:02.247Z,1.10
2018-02-05T19:57:30.510Z,1.10
2018-02-05T19:59:58.775Z,1.10
2018-02-05T20:02:26.302Z,1.00
2018-02-05T20:04:53.849Z,1.00
2018-02-05T20:07:21.378Z,0.90
2018-02-05T20:09:49.692Z,0.90
2018-02-05T20:12:17.208Z,0.90
2018-02-05T20:14:45.472Z,0.90
2018-02-05T20:17:12.989Z,0.90
2018-02-05T20:19:40.483Z,0.90
2018-02-05T20:22:07.987Z,1.00
2018-02-05T20:24:35.505Z,1.00
2018-02-05T20:27:03.051Z,1.00
2018-02-05T20:29:30.550Z,1.00
2018-02-05T20:31:58.847Z,0.90
2018-02-05T20:34:26.367Z,0.90
2018-02-05T20:36:54.657Z,0.90
2018-02-05T20:39:22.937Z,0.90
2018-02-05T20:41:51.204Z,0.90
2018-02-05T20:44:20.199Z,0.90
2018-02-05T20:46:47.712Z,0.90
2018-02-05T20:49:15.248Z,0.90
2018-02-05T20:51:43.490Z,0.90
2018-02-05T20:54:11.783Z,0.90
2018-02-05T20:56:40.045Z,0.90
2018-02-05T20:59:08.306Z,0.90
2018-02-05T21:01:35.837Z,0.90
2018-02-05T21:04:03.386Z,0.90
2018-02-05T21:06:30.901Z,0.90
2018-02-05T21:08:58.421Z,0.80
2018-02-05T21:11:25.925Z,0.80
2018-02-05T21:13:54.184Z,0.70
2018-02-05T21:16:21.701Z,0.70
2018-02-05T21:18:49.208Z,0.70
2018-02-05T21:21:18.211Z,0.70
2018-02-05T21:23:46.515Z,0.60
2018-02-05T21:26:14.026Z,0.60
2018-02-05T21:28:41.513Z,0.60
2018-02-05T21:31:09.797Z,0.60
2018-02-05T21:33:38.068Z,0.60
2018-02-05T21:36:06.341Z,0.60
2018-02-05T21:38:34.614Z,0.60
2018-02-05T21:41:02.887Z,0.60
2018-02-05T21:43:30.373Z,0.60
2018-02-05T21:45:57.939Z,0.50
2018-02-05T21:48:25.433Z,0.50
2018-02-05T21:50:52.927Z,0.50
2018-02-05T21:53:21.201Z,0.50
2018-02-05T21:55:49.464Z,0.60
2018-02-05T21:58:16.957Z,0.60
2018-02-05T22:00:44.482Z,0.60
2018-02-05T22:03:12.747Z,0.50
2018-02-05T22:05:40.249Z,0.50
2018-02-05T22:08:08.526Z,0.50
2018-02-05T22:10:36.048Z,0.40
2018-02-05T22:13:03.560Z,0.40
2018-02-05T22:15:31.085Z,0.30
2018-02-05T22:18:00.359Z,0.30
2018-02-05T22:20:27.857Z,0.30
2018-02-05T22:22:56.134Z,0.30
2018-02-05T22:25:24.401Z,0.30
2018-02-05T22:27:52.681Z,0.20
2018-02-05T22:30:20.984Z,0.20
2018-02-05T22:32:48.491Z,0.20
2018-02-05T22:35:15.981Z,0.30
2018-02-05T22:37:44.266Z,0.20
2018-02-05T22:40:11.782Z,0.20
2018-02-05T22:42:39.283Z,0.20
2018-02-05T22:45:06.809Z,0.30
2018-02-05T22:47:34.290Z,0.20
2018-02-05T22:50:02.570Z,0.30
2018-02-05T22:52:30.097Z,0.20
2018-02-05T22:54:57.593Z,0.20
2018-02-05T22:57:25.134Z,0.30
2018-02-05T22:59:53.393Z,0.30
2018-02-05T23:02:21.009Z,0.20
2018-02-05T23:04:48.513Z,0.20
2018-02-05T23:07:16.105Z,0.30
2018-02-05T23:09:44.381Z,0.20
2018-02-05T23:12:11.953Z,0.30
2018-02-05T23:14:39.473Z,0.20
2018-02-05T23:17:06.982Z,0.20
2018-02-05T23:19:34.482Z,0.10
2018-02-05T23:22:03.506Z,0.10
2018-02-05T23:24:31.753Z,0.10
2018-02-05T23:27:00.022Z,0.10
2018-02-05T23:29:27.533Z,0.10
2018-02-05T23:31:55.042Z,0.10
2018-02-05T23:34:22.658Z,0.00
2018-02-05T23:36:50.166Z,-0.10
2018-02-05T23:39:17.670Z,0.00
2018-02-05T23:41:45.243Z,0.00
2018-02-05T23:44:12.745Z,-0.10
2018-02-05T23:46:40.261Z,-0.10
2018-02-05T23:49:07.768Z,-0.10
2018-02-05T23:51:35.276Z,-0.10
2018-02-05T23:54:02.802Z,-0.20
2018-02-05T23:56:31.066Z,-0.10
2018-02-05T23:58:59.366Z,-0.10
